Time;durP1;ratioP1;P1;durP2;ratioP2;P2;SDS_P1;SDS_P2;PMS_P1;PMS_P2;Temp;Humidity;BMP_temperature;BMP_pressure;BME280_temperature;BME280_humidity;BME280_pressure;Samples;Min_cycle;Max_cycle;Signal;HPM_P1;HPM_P2
2023/01/21 00:02:15;;;;;;;68.30;24.23;;;;;;;;;;5029277;28;20198;-67
2023/01/21 00:04:41;;;;;;;59.87;23.47;;;;;;;;;;5040761;28;20276;-67
2023/01/21 00:07:06;;;;;;;68.03;25.07;;;;;;;;;;5039448;28;20637;-66
2023/01/21 00:09:33;;;;;;;65.07;23.83;;;;;;;;;;5044161;28;20781;-66
2023/01/21 00:12:01;;;;;;;66.83;24.77;;;;;;;;;;5042544;28;20202;-67
2023/01/21 00:14:28;;;;;;;71.33;26.90;;;;;;;;;;5018888;28;20177;-66
2023/01/21 00:16:53;;;;;;;70.53;25.97;;;;;;;;;;5034565;28;20181;-66
2023/01/21 00:19:19;;;;;;;64.90;25.53;;;;;;;;;;5041015;28;20198;-67
2023/01/21 00:21:44;;;;;;;68.53;26.20;;;;;;;;;;5033789;28;20197;-66
2023/01/21 00:24:09;;;;;;;65.27;25.20;;;;;;;;;;5037108;28;20603;-66
2023/01/21 00:26:35;;;;;;;70.83;26.43;;;;;;;;;;5023079;28;20198;-66
2023/01/21 00:29:00;;;;;;;62.60;24.67;;;;;;;;;;5042555;28;20189;-67
2023/01/21 00:31:26;;;;;;;64.20;24.90;;;;;;;;;;5032696;28;20227;-67
2023/01/21 00:33:52;;;;;;;73.07;25.97;;;;;;;;;;5032302;28;20720;-67
2023/01/21 00:36:17;;;;;;;75.80;27.07;;;;;;;;;;5031754;28;20185;-67
2023/01/21 00:38:43;;;;;;;74.97;27.03;;;;;;;;;;5027544;28;20210;-67
2023/01/21 00:41:11;;;;;;;63.57;24.57;;;;;;;;;;5040634;28;20221;-66
2023/01/21 00:43:38;;;;;;;65.33;25.67;;;;;;;;;;5033695;28;20209;-66
2023/01/21 00:46:04;;;;;;;68.10;24.57;;;;;;;;;;5024222;28;20225;-67
2023/01/21 00:48:30;;;;;;;63.73;25.37;;;;;;;;;;5021197;28;20210;-67
2023/01/21 00:50:59;;;;;;;72.43;26.23;;;;;;;;;;5023116;28;20289;-66
2023/01/21 00:53:25;;;;;;;59.43;23.03;;;;;;;;;;5026492;28;20610;-66
2023/01/21 00:55:50;;;;;;;67.20;23.43;;;;;;;;;;5034569;28;20323;-66
2023/01/21 00:58:16;;;;;;;69.87;22.97;;;;;;;;;;5031079;28;20686;-67
2023/01/21 01:00:41;;;;;;;63.93;22.67;;;;;;;;;;5027340;28;20221;-66
2023/01/21 01:03:06;;;;;;;65.30;23.73;;;;;;;;;;5027835;28;20217;-66
2023/01/21 01:05:32;;;;;;;55.97;20.47;;;;;;;;;;5020828;28;20240;-66
2023/01/21 01:07:57;;;;;;;67.90;23.20;;;;;;;;;;5020602;28;20642;-66
2023/01/21 01:10:22;;;;;;;64.10;21.33;;;;;;;;;;5026674;28;20198;-67
2023/01/21 01:12:48;;;;;;;65.13;22.97;;;;;;;;;;5026695;28;20212;-66
2023/01/21 01:15:13;;;;;;;59.47;21.20;;;;;;;;;;5022019;28;20236;-66
2023/01/21 01:17:39;;;;;;;59.10;22.50;;;;;;;;;;5025873;28;20541;-66
2023/01/21 01:20:05;;;;;;;63.67;24.10;;;;;;;;;;5026713;28;20269;-68
2023/01/21 01:22:30;;;;;;;66.63;22.87;;;;;;;;;;5023871;28;20501;-66
2023/01/21 01:24:55;;;;;;;65.23;22.13;;;;;;;;;;5034374;28;20225;-66
2023/01/21 01:27:21;;;;;;;64.87;21.47;;;;;;;;;;5028011;28;20545;-66
2023/01/21 01:29:47;;;;;;;63.40;22.13;;;;;;;;;;5025128;28;20269;-66
2023/01/21 01:32:13;;;;;;;61.90;22.07;;;;;;;;;;5026785;28;20193;-66
2023/01/21 01:34:38;;;;;;;58.17;21.53;;;;;;;;;;5028696;28;20194;-67
2023/01/21 01:37:03;;;;;;;63.80;22.53;;;;;;;;;;5033168;28;20190;-66
2023/01/21 01:39:30;;;;;;;64.30;21.13;;;;;;;;;;5027871;28;20224;-66
2023/01/21 01:41:55;;;;;;;69.03;22.80;;;;;;;;;;5018785;28;20187;-66
2023/01/21 01:44:59;;;;;;;62.13;21.27;;;;;;;;;;5030444;28;20240;-66
2023/01/21 01:47:31;;;;;;;66.93;21.87;;;;;;;;;;5020768;28;20202;-66
2023/01/21 01:49:58;;;;;;;63.80;22.80;;;;;;;;;;5027495;28;20205;-66
2023/01/21 01:52:23;;;;;;;63.50;21.40;;;;;;;;;;5030312;28;20606;-66
2023/01/21 01:54:51;;;;;;;66.00;22.07;;;;;;;;;;5024825;28;20194;-66
2023/01/21 01:57:22;;;;;;;66.70;23.20;;;;;;;;;;5024398;28;20274;-66
2023/01/21 01:59:48;;;;;;;68.77;23.10;;;;;;;;;;5021956;28;20281;-66
2023/01/21 02:02:17;;;;;;;63.50;23.73;;;;;;;;;;5027162;28;20694;-66
2023/01/21 02:04:46;;;;;;;69.40;23.33;;;;;;;;;;5027750;28;20221;-66
2023/01/21 02:07:12;;;;;;;74.10;23.30;;;;;;;;;;5027270;28;20221;-66
2023/01/21 02:09:38;;;;;;;66.90;23.00;;;;;;;;;;5027910;28;20200;-66
2023/01/21 02:12:05;;;;;;;65.80;23.47;;;;;;;;;;5027735;28;20668;-66
2023/01/21 02:14:31;;;;;;;69.50;22.67;;;;;;;;;;5022827;28;20632;-66
2023/01/21 02:17:06;;;;;;;77.50;23.97;;;;;;;;;;5028039;28;20213;-66
2023/01/21 02:20:06;;;;;;;63.83;22.37;;;;;;;;;;5024654;28;20181;-66
2023/01/21 02:22:59;;;;;;;56.70;20.60;;;;;;;;;;5024782;28;20273;-66
2023/01/21 02:25:52;;;;;;;60.63;20.37;;;;;;;;;;5024696;28;20828;-66
2023/01/21 02:28:28;;;;;;;58.70;19.63;;;;;;;;;;5024726;28;20296;-66
2023/01/21 02:31:06;;;;;;;65.50;21.97;;;;;;;;;;5030624;28;20272;-66
2023/01/21 02:33:45;;;;;;;62.50;21.17;;;;;;;;;;5023187;28;20574;-67
2023/01/21 02:36:24;;;;;;;56.87;20.20;;;;;;;;;;5020087;28;20236;-66
2023/01/21 02:39:24;;;;;;;62.30;20.43;;;;;;;;;;5030398;28;20253;-66
2023/01/21 02:42:06;;;;;;;49.83;19.63;;;;;;;;;;5038027;28;20238;-66
2023/01/21 02:44:45;;;;;;;57.07;19.60;;;;;;;;;;5036817;28;20684;-66
2023/01/21 02:47:18;;;;;;;60.53;19.43;;;;;;;;;;5022137;28;20228;-66
2023/01/21 02:49:49;;;;;;;64.23;21.50;;;;;;;;;;5032454;28;20530;-66
2023/01/21 02:52:21;;;;;;;55.93;20.27;;;;;;;;;;5033348;28;20194;-66
2023/01/21 02:54:49;;;;;;;63.30;21.67;;;;;;;;;;5019212;28;20187;-66
2023/01/21 02:57:29;;;;;;;56.20;20.73;;;;;;;;;;5023549;28;20186;-65
2023/01/21 02:59:55;;;;;;;65.93;20.93;;;;;;;;;;5037427;28;20217;-65
2023/01/21 03:02:56;;;;;;;61.83;20.40;;;;;;;;;;5038767;28;20775;-66
2023/01/21 03:05:43;;;;;;;61.27;21.30;;;;;;;;;;5032696;28;20186;-66
2023/01/21 03:08:38;;;;;;;63.97;21.13;;;;;;;;;;5025159;28;20232;-66
2023/01/21 03:11:19;;;;;;;71.60;22.67;;;;;;;;;;5020127;28;20300;-66
2023/01/21 03:17:07;;;;;;;71.97;21.10;;;;;;;;;;5018028;28;20182;-66
2023/01/21 03:19:47;;;;;;;67.93;21.73;;;;;;;;;;5027407;28;20225;-66
2023/01/21 03:22:21;;;;;;;68.93;22.00;;;;;;;;;;5022418;28;20190;-66
2023/01/21 03:24:49;;;;;;;65.10;22.40;;;;;;;;;;5026761;28;20640;-66
2023/01/21 03:27:18;;;;;;;76.53;23.23;;;;;;;;;;5029478;28;20250;-66
2023/01/21 03:29:46;;;;;;;69.93;23.07;;;;;;;;;;5017318;28;20289;-66
2023/01/21 03:32:15;;;;;;;74.03;22.23;;;;;;;;;;5027527;28;21826;-66
2023/01/21 03:34:46;;;;;;;70.57;22.27;;;;;;;;;;5019897;28;20242;-66
2023/01/21 03:37:22;;;;;;;78.30;21.77;;;;;;;;;;5023808;28;20650;-66
2023/01/21 03:39:57;;;;;;;67.53;22.00;;;;;;;;;;5014036;28;20186;-66
2023/01/21 03:42:22;;;;;;;70.83;21.97;;;;;;;;;;5035739;28;20260;-66
2023/01/21 03:44:48;;;;;;;77.23;23.03;;;;;;;;;;5033708;28;20277;-66
2023/01/21 03:47:30;;;;;;;73.03;21.60;;;;;;;;;;5024969;28;20306;-66
2023/01/21 03:50:08;;;;;;;74.27;22.00;;;;;;;;;;5017880;28;20182;-66
2023/01/21 03:52:37;;;;;;;76.37;23.60;;;;;;;;;;5027067;28;20185;-66
2023/01/21 03:55:04;;;;;;;81.83;23.33;;;;;;;;;;5020446;28;20217;-66
2023/01/21 03:57:29;;;;;;;80.47;23.43;;;;;;;;;;5018420;28;20281;-66
2023/01/21 03:59:55;;;;;;;84.60;22.57;;;;;;;;;;5018998;28;20345;-66
2023/01/21 04:02:20;;;;;;;89.87;24.63;;;;;;;;;;5013125;28;20186;-66
2023/01/21 04:04:46;;;;;;;82.93;23.87;;;;;;;;;;5026287;28;20186;-66
2023/01/21 04:07:13;;;;;;;80.00;22.10;;;;;;;;;;5024389;28;20210;-66
2023/01/21 04:09:39;;;;;;;81.90;23.80;;;;;;;;;;5028591;28;20213;-66
2023/01/21 04:12:04;;;;;;;94.73;24.27;;;;;;;;;;5026700;28;20191;-66
2023/01/21 04:14:30;;;;;;;87.00;24.47;;;;;;;;;;5036734;28;20185;-67
2023/01/21 04:16:55;;;;;;;76.50;25.10;;;;;;;;;;5036422;28;20606;-65
2023/01/21 04:19:20;;;;;;;79.87;24.27;;;;;;;;;;5033150;28;20273;-66
2023/01/21 04:21:46;;;;;;;83.33;25.23;;;;;;;;;;5036105;28;20185;-66
2023/01/21 04:24:11;;;;;;;88.90;24.53;;;;;;;;;;5020415;28;20190;-66
2023/01/21 04:26:37;;;;;;;87.13;24.57;;;;;;;;;;5032537;28;20556;-66
2023/01/21 04:29:02;;;;;;;88.87;26.60;;;;;;;;;;5027479;28;20190;-66
2023/01/21 04:31:27;;;;;;;87.93;25.83;;;;;;;;;;5027291;28;20186;-66
2023/01/21 04:33:53;;;;;;;91.47;27.57;;;;;;;;;;5030095;28;20343;-65
2023/01/21 04:36:18;;;;;;;94.20;27.93;;;;;;;;;;5029837;28;20193;-66
2023/01/21 04:38:43;;;;;;;92.77;27.30;;;;;;;;;;5030903;28;20224;-66
2023/01/21 04:41:09;;;;;;;89.03;26.80;;;;;;;;;;5029552;28;20200;-66
2023/01/21 04:43:34;;;;;;;90.53;27.93;;;;;;;;;;5028168;28;20205;-66
2023/01/21 04:46:00;;;;;;;93.63;26.50;;;;;;;;;;5023690;28;20251;-66
2023/01/21 04:48:25;;;;;;;90.43;27.33;;;;;;;;;;5029561;28;20210;-66
2023/01/21 04:50:51;;;;;;;99.70;30.27;;;;;;;;;;5023444;28;20217;-66
2023/01/21 04:53:16;;;;;;;96.33;28.77;;;;;;;;;;5025259;28;20198;-66
2023/01/21 04:55:41;;;;;;;100.23;29.87;;;;;;;;;;5028851;28;20200;-66
2023/01/21 04:58:07;;;;;;;103.40;30.27;;;;;;;;;;5022442;28;20332;-66
2023/01/21 05:00:32;;;;;;;96.50;28.20;;;;;;;;;;5025412;28;20205;-66
2023/01/21 05:02:58;;;;;;;97.73;29.60;;;;;;;;;;5027484;28;20289;-66
2023/01/21 05:05:23;;;;;;;99.67;29.57;;;;;;;;;;5018083;28;20193;-66
2023/01/21 05:07:52;;;;;;;97.30;29.00;;;;;;;;;;5026570;28;20212;-66
2023/01/21 05:10:17;;;;;;;89.67;28.77;;;;;;;;;;5019406;28;20185;-66
2023/01/21 05:12:43;;;;;;;95.33;28.70;;;;;;;;;;5024201;28;20837;-66
2023/01/21 05:15:09;;;;;;;100.37;29.17;;;;;;;;;;5025766;28;20194;-66
2023/01/21 05:17:34;;;;;;;94.37;28.63;;;;;;;;;;5021309;28;20186;-66
2023/01/21 05:19:59;;;;;;;90.23;28.90;;;;;;;;;;5041207;28;20189;-66
2023/01/21 05:22:25;;;;;;;99.93;30.53;;;;;;;;;;5024381;28;20219;-66
2023/01/21 05:24:50;;;;;;;84.17;27.93;;;;;;;;;;5023500;28;20233;-66
2023/01/21 05:27:16;;;;;;;92.27;28.53;;;;;;;;;;5032501;28;20209;-66
2023/01/21 05:29:41;;;;;;;89.30;28.70;;;;;;;;;;5036059;28;20190;-66
2023/01/21 05:32:07;;;;;;;92.07;28.63;;;;;;;;;;5024195;28;20190;-66
2023/01/21 05:34:33;;;;;;;84.40;26.43;;;;;;;;;;5035003;28;20188;-65
2023/01/21 05:36:58;;;;;;;87.53;28.60;;;;;;;;;;5041048;28;20246;-66
2023/01/21 05:39:23;;;;;;;83.30;27.20;;;;;;;;;;5033778;28;20210;-65
2023/01/21 05:41:49;;;;;;;86.43;28.33;;;;;;;;;;5032350;28;20727;-66
2023/01/21 05:44:14;;;;;;;93.50;30.23;;;;;;;;;;5037186;28;20204;-66
2023/01/21 05:46:39;;;;;;;77.50;28.60;;;;;;;;;;5021873;28;20196;-66
2023/01/21 05:49:05;;;;;;;84.93;28.17;;;;;;;;;;5024322;28;20205;-66
2023/01/21 05:51:30;;;;;;;86.97;29.73;;;;;;;;;;5018215;28;20190;-65
2023/01/21 05:53:56;;;;;;;86.43;28.10;;;;;;;;;;5029309;28;20198;-66
2023/01/21 05:56:21;;;;;;;80.63;28.63;;;;;;;;;;5028727;28;20190;-66
2023/01/21 05:58:46;;;;;;;90.30;27.70;;;;;;;;;;5027293;28;20662;-66
2023/01/21 06:01:12;;;;;;;84.43;28.67;;;;;;;;;;5028857;28;20202;-66
2023/01/21 06:03:37;;;;;;;92.37;28.87;;;;;;;;;;5029206;28;20209;-65
2023/01/21 06:06:03;;;;;;;85.83;27.83;;;;;;;;;;5035670;28;20179;-66
2023/01/21 06:08:28;;;;;;;83.87;27.97;;;;;;;;;;5034146;28;20210;-65
2023/01/21 06:10:55;;;;;;;87.63;29.33;;;;;;;;;;5039936;28;20200;-65
2023/01/21 06:13:21;;;;;;;82.87;28.13;;;;;;;;;;5039956;28;20182;-65
2023/01/21 06:15:46;;;;;;;79.87;28.43;;;;;;;;;;5027502;28;20190;-65
2023/01/21 06:18:12;;;;;;;85.80;27.97;;;;;;;;;;5034493;28;20185;-65
2023/01/21 06:20:37;;;;;;;72.70;25.30;;;;;;;;;;5027815;28;20332;-66
2023/01/21 06:23:03;;;;;;;77.00;26.77;;;;;;;;;;5030722;28;21401;-65
2023/01/21 06:25:29;;;;;;;78.00;28.43;;;;;;;;;;5036726;28;20254;-67
2023/01/21 06:27:55;;;;;;;76.73;27.03;;;;;;;;;;5044568;28;20292;-67
2023/01/21 06:30:21;;;;;;;78.63;26.50;;;;;;;;;;5038424;28;20641;-67
2023/01/21 06:32:46;;;;;;;79.93;26.47;;;;;;;;;;5038065;28;20291;-67
2023/01/21 06:35:12;;;;;;;77.27;27.40;;;;;;;;;;5036461;28;20837;-67
2023/01/21 06:37:37;;;;;;;75.80;26.93;;;;;;;;;;5035166;28;20210;-67
2023/01/21 06:40:04;;;;;;;75.33;27.13;;;;;;;;;;5026154;28;20186;-67
2023/01/21 06:42:29;;;;;;;73.30;27.43;;;;;;;;;;5035951;28;20248;-69
2023/01/21 06:44:54;;;;;;;74.07;26.80;;;;;;;;;;5037182;28;20552;-65
2023/01/21 06:47:20;;;;;;;75.33;26.50;;;;;;;;;;5041404;28;20296;-65
2023/01/21 06:49:45;;;;;;;71.60;26.60;;;;;;;;;;5039149;28;20186;-65
2023/01/21 06:52:10;;;;;;;66.20;25.10;;;;;;;;;;5035449;28;20283;-65
2023/01/21 06:54:36;;;;;;;69.83;23.63;;;;;;;;;;5036136;28;20205;-66
2023/01/21 06:57:01;;;;;;;68.43;22.53;;;;;;;;;;5030697;28;20649;-66
2023/01/21 06:59:27;;;;;;;70.80;24.77;;;;;;;;;;5036304;28;20691;-67
2023/01/21 07:01:52;;;;;;;73.17;26.87;;;;;;;;;;5029668;28;20258;-66
2023/01/21 07:04:18;;;;;;;65.07;24.83;;;;;;;;;;5038391;28;20201;-66
2023/01/21 07:06:43;;;;;;;67.47;25.30;;;;;;;;;;5040874;28;20186;-66
2023/01/21 07:09:08;;;;;;;70.90;25.37;;;;;;;;;;5029926;28;20191;-66
2023/01/21 07:11:34;;;;;;;77.07;25.07;;;;;;;;;;5020849;28;20281;-66
2023/01/21 07:13:59;;;;;;;77.37;25.53;;;;;;;;;;5033261;28;20693;-66
2023/01/21 07:16:25;;;;;;;72.10;26.23;;;;;;;;;;5034794;28;20526;-66
2023/01/21 07:18:51;;;;;;;73.70;25.83;;;;;;;;;;5039932;28;20192;-66
2023/01/21 07:21:16;;;;;;;69.67;25.47;;;;;;;;;;5043376;28;20213;-66
2023/01/21 07:23:42;;;;;;;74.23;26.97;;;;;;;;;;5044111;28;20209;-65
2023/01/21 07:26:07;;;;;;;70.43;25.73;;;;;;;;;;5034012;28;20657;-66
2023/01/21 07:28:33;;;;;;;68.83;25.33;;;;;;;;;;5034864;28;20209;-66
2023/01/21 07:30:59;;;;;;;77.43;27.03;;;;;;;;;;5026780;28;20704;-66
2023/01/21 07:33:25;;;;;;;72.93;26.07;;;;;;;;;;5038226;28;20302;-65
2023/01/21 07:35:50;;;;;;;67.57;27.17;;;;;;;;;;5028485;28;20616;-66
2023/01/21 07:38:16;;;;;;;74.60;26.60;;;;;;;;;;5028264;28;20264;-66
2023/01/21 07:40:41;;;;;;;73.90;28.10;;;;;;;;;;5018463;28;20194;-66
2023/01/21 07:43:08;;;;;;;73.23;27.50;;;;;;;;;;5017237;28;20562;-66
2023/01/21 07:45:33;;;;;;;71.43;25.87;;;;;;;;;;5015478;28;20182;-66
2023/01/21 07:47:58;;;;;;;71.07;26.20;;;;;;;;;;5013320;28;20214;-66
2023/01/21 07:50:24;;;;;;;74.87;26.47;;;;;;;;;;5025214;28;20749;-66
2023/01/21 07:52:52;;;;;;;74.40;26.83;;;;;;;;;;5029018;28;20275;-66
2023/01/21 07:55:17;;;;;;;73.60;26.47;;;;;;;;;;5029947;28;20200;-66
2023/01/21 07:57:43;;;;;;;71.57;25.83;;;;;;;;;;5033642;28;20186;-67
2023/01/21 08:00:09;;;;;;;71.53;27.03;;;;;;;;;;5034176;28;20685;-67
2023/01/21 08:02:35;;;;;;;74.90;27.53;;;;;;;;;;5045245;28;20526;-67
2023/01/21 08:05:00;;;;;;;69.70;26.07;;;;;;;;;;5040399;28;20198;-67
2023/01/21 08:07:25;;;;;;;62.83;24.73;;;;;;;;;;5029576;28;20202;-67
2023/01/21 08:09:51;;;;;;;71.50;26.63;;;;;;;;;;5024406;28;20681;-67
2023/01/21 08:12:16;;;;;;;67.80;25.43;;;;;;;;;;5039015;28;20196;-67
2023/01/21 08:14:41;;;;;;;66.97;26.03;;;;;;;;;;5039844;28;20641;-67
2023/01/21 08:17:07;;;;;;;62.90;24.70;;;;;;;;;;5036511;28;20264;-67
2023/01/21 08:19:32;;;;;;;72.60;27.47;;;;;;;;;;5031973;28;20233;-67
2023/01/21 08:21:57;;;;;;;77.83;26.43;;;;;;;;;;5033468;28;20209;-67
2023/01/21 08:24:23;;;;;;;68.93;25.77;;;;;;;;;;5034714;28;20654;-67
2023/01/21 08:26:48;;;;;;;76.73;27.13;;;;;;;;;;5039840;28;20194;-67
2023/01/21 08:29:14;;;;;;;67.23;25.27;;;;;;;;;;5044903;28;20343;-68
2023/01/21 08:31:39;;;;;;;73.97;27.07;;;;;;;;;;5036291;28;20558;-67
2023/01/21 08:34:04;;;;;;;73.10;26.97;;;;;;;;;;5048492;28;20506;-67
2023/01/21 08:36:30;;;;;;;68.03;25.70;;;;;;;;;;5032073;28;20183;-67
2023/01/21 08:39:04;;;;;;;69.87;26.27;;;;;;;;;;5025145;28;20592;-67
2023/01/21 08:41:30;;;;;;;68.83;25.90;;;;;;;;;;5028379;28;20173;-67
2023/01/21 08:43:56;;;;;;;62.03;24.60;;;;;;;;;;5030468;28;20190;-67
2023/01/21 08:46:21;;;;;;;65.23;25.37;;;;;;;;;;5035766;28;20244;-67
2023/01/21 08:48:46;;;;;;;67.33;25.20;;;;;;;;;;5040010;28;20221;-67
2023/01/21 08:51:12;;;;;;;72.47;25.90;;;;;;;;;;5034934;28;20469;-67
2023/01/21 08:53:37;;;;;;;71.83;25.73;;;;;;;;;;5028349;28;20229;-67
2023/01/21 08:56:03;;;;;;;67.50;25.67;;;;;;;;;;5032285;28;20186;-67
2023/01/21 08:58:29;;;;;;;66.10;26.83;;;;;;;;;;5024218;28;20210;-67
2023/01/21 09:00:55;;;;;;;69.63;26.30;;;;;;;;;;5034943;28;20705;-67
2023/01/21 09:03:21;;;;;;;65.00;25.33;;;;;;;;;;5028304;28;20407;-67
2023/01/21 09:05:46;;;;;;;73.27;27.47;;;;;;;;;;5027887;28;20189;-67
2023/01/21 09:08:12;;;;;;;69.47;25.83;;;;;;;;;;5033462;28;20213;-67
2023/01/21 09:13:21;;;;;;;65.90;25.50;;;;;;;;;;5040744;28;20261;-67
2023/01/21 09:15:47;;;;;;;74.60;27.43;;;;;;;;;;5041904;28;20758;-67
2023/01/21 09:18:12;;;;;;;72.57;27.43;;;;;;;;;;5029804;28;20439;-67
2023/01/21 09:20:38;;;;;;;77.00;29.80;;;;;;;;;;5028758;28;20293;-67
2023/01/21 09:23:22;;;;;;;73.30;29.00;;;;;;;;;;5034879;28;20566;-67
2023/01/21 09:25:59;;;;;;;77.17;30.57;;;;;;;;;;5017265;28;20233;-67
2023/01/21 09:28:25;;;;;;;71.83;29.10;;;;;;;;;;5039718;28;20206;-67
2023/01/21 09:31:02;;;;;;;68.67;28.23;;;;;;;;;;5031416;28;20228;-67
2023/01/21 09:33:29;;;;;;;65.57;26.87;;;;;;;;;;5026574;28;20217;-67
2023/01/21 09:35:57;;;;;;;65.47;27.10;;;;;;;;;;5028065;28;20351;-67
2023/01/21 09:38:23;;;;;;;67.80;25.37;;;;;;;;;;5037031;28;20181;-67
2023/01/21 09:40:49;;;;;;;59.70;24.77;;;;;;;;;;5025943;28;20194;-67
2023/01/21 09:43:25;;;;;;;58.97;25.53;;;;;;;;;;5029211;28;20662;-67
2023/01/21 09:45:53;;;;;;;55.83;23.93;;;;;;;;;;5027029;28;20197;-67
2023/01/21 09:48:36;;;;;;;64.10;25.50;;;;;;;;;;5037460;28;20495;-67
2023/01/21 09:51:08;;;;;;;60.53;23.60;;;;;;;;;;5030178;28;20190;-68
2023/01/21 09:53:43;;;;;;;61.47;25.13;;;;;;;;;;5024936;28;20208;-67
2023/01/21 09:56:36;;;;;;;62.10;25.07;;;;;;;;;;5023831;28;20193;-67
2023/01/21 09:59:22;;;;;;;61.03;24.37;;;;;;;;;;5025745;28;20198;-67
2023/01/21 10:01:50;;;;;;;57.67;23.80;;;;;;;;;;5023256;28;20197;-67
2023/01/21 10:04:37;;;;;;;63.23;25.33;;;;;;;;;;5029188;28;20217;-67
2023/01/21 10:07:13;;;;;;;58.77;24.27;;;;;;;;;;5022246;28;20178;-67
2023/01/21 10:09:54;;;;;;;59.37;25.17;;;;;;;;;;5021052;28;20303;-67
2023/01/21 10:12:40;;;;;;;63.97;27.47;;;;;;;;;;5032788;28;20185;-67
2023/01/21 10:15:40;;;;;;;62.77;26.20;;;;;;;;;;5035519;28;20209;-67
2023/01/21 10:18:13;;;;;;;58.00;24.63;;;;;;;;;;5027250;28;20706;-67
2023/01/21 10:20:59;;;;;;;70.27;26.50;;;;;;;;;;5025492;28;20285;-67
2023/01/21 10:23:41;;;;;;;59.87;24.47;;;;;;;;;;5028719;28;20205;-66
2023/01/21 10:26:10;;;;;;;61.03;23.93;;;;;;;;;;5029409;28;20711;-66
2023/01/21 10:28:47;;;;;;;64.77;26.13;;;;;;;;;;5035967;28;20677;-68
2023/01/21 10:31:30;;;;;;;64.23;24.73;;;;;;;;;;5023330;28;20263;-66
2023/01/21 10:33:56;;;;;;;55.50;23.90;;;;;;;;;;5038855;28;20281;-67
2023/01/21 10:36:39;;;;;;;65.70;25.33;;;;;;;;;;5035379;28;20334;-67
2023/01/21 10:39:26;;;;;;;60.80;24.73;;;;;;;;;;5028011;28;20609;-67
2023/01/21 10:42:08;;;;;;;62.83;24.00;;;;;;;;;;5022140;28;20391;-67
2023/01/21 10:44:44;;;;;;;58.93;24.83;;;;;;;;;;5054862;28;20216;-67
2023/01/21 10:47:34;;;;;;;59.97;24.40;;;;;;;;;;5022099;28;20259;-66
2023/01/21 10:50:30;;;;;;;60.57;25.60;;;;;;;;;;5041798;28;22326;-66
2023/01/21 10:53:06;;;;;;;56.90;24.40;;;;;;;;;;5046480;28;20272;-67
2023/01/21 10:55:58;;;;;;;58.17;24.27;;;;;;;;;;5044360;28;20200;-66
2023/01/21 10:58:42;;;;;;;56.63;24.70;;;;;;;;;;5021107;28;20199;-66
2023/01/21 11:01:18;;;;;;;63.23;24.47;;;;;;;;;;5034708;28;20326;-67
2023/01/21 11:03:51;;;;;;;59.03;24.70;;;;;;;;;;5033633;28;20719;-67
2023/01/21 11:06:18;;;;;;;59.77;26.03;;;;;;;;;;5031528;28;20198;-67
2023/01/21 11:08:49;;;;;;;59.07;25.40;;;;;;;;;;5014062;28;20251;-67
2023/01/21 11:11:25;;;;;;;59.07;23.90;;;;;;;;;;5033496;28;20550;-67
2023/01/21 11:13:50;;;;;;;60.00;24.87;;;;;;;;;;5029238;28;20622;-66
2023/01/21 11:16:33;;;;;;;55.90;23.77;;;;;;;;;;5030654;28;20205;-66
2023/01/21 11:18:59;;;;;;;59.73;23.63;;;;;;;;;;5023175;28;20684;-66
2023/01/21 11:21:25;;;;;;;58.20;24.00;;;;;;;;;;5028642;28;20185;-67
2023/01/21 11:24:03;;;;;;;56.50;24.77;;;;;;;;;;5041168;28;20268;-66
2023/01/21 11:26:33;;;;;;;48.53;22.87;;;;;;;;;;5026838;28;20301;-68
2023/01/21 11:29:12;;;;;;;53.37;24.73;;;;;;;;;;5025835;28;20198;-66
2023/01/21 11:31:39;;;;;;;57.23;24.03;;;;;;;;;;5046096;28;20212;-66
2023/01/21 11:34:15;;;;;;;56.17;23.50;;;;;;;;;;5031969;28;20201;-66
2023/01/21 11:36:54;;;;;;;49.80;23.93;;;;;;;;;;5037976;28;20282;-66
2023/01/21 11:39:22;;;;;;;49.13;22.53;;;;;;;;;;5028619;28;21255;-66
2023/01/21 11:41:56;;;;;;;48.47;21.90;;;;;;;;;;5038510;28;20197;-67
2023/01/21 11:44:22;;;;;;;50.63;23.53;;;;;;;;;;5033478;28;20197;-67
2023/01/21 11:46:49;;;;;;;48.30;23.57;;;;;;;;;;5032658;28;20213;-67
2023/01/21 11:49:14;;;;;;;48.50;22.70;;;;;;;;;;5033706;28;20197;-66
2023/01/21 11:51:41;;;;;;;52.87;23.10;;;;;;;;;;5022294;28;20532;-67
2023/01/21 11:54:15;;;;;;;52.87;22.87;;;;;;;;;;5040942;28;20186;-67
2023/01/21 11:56:52;;;;;;;49.33;22.13;;;;;;;;;;5035507;28;20203;-67
2023/01/21 11:59:29;;;;;;;45.07;21.30;;;;;;;;;;5034597;28;20178;-67
2023/01/21 12:02:02;;;;;;;49.63;21.33;;;;;;;;;;5025509;28;20197;-68
2023/01/21 12:04:27;;;;;;;52.73;22.10;;;;;;;;;;5032209;28;20197;-67
2023/01/21 12:06:56;;;;;;;48.67;21.90;;;;;;;;;;5029331;28;20189;-67
2023/01/21 12:09:23;;;;;;;49.90;22.80;;;;;;;;;;5027930;28;20191;-68
2023/01/21 12:12:12;;;;;;;46.10;22.77;;;;;;;;;;5032729;28;20186;-68
2023/01/21 12:15:02;;;;;;;51.53;23.00;;;;;;;;;;5028408;28;20362;-68
2023/01/21 12:17:54;;;;;;;56.77;24.50;;;;;;;;;;5038884;28;20175;-67
2023/01/21 12:20:33;;;;;;;54.10;22.53;;;;;;;;;;5028452;28;20187;-68
2023/01/21 12:23:24;;;;;;;47.13;21.53;;;;;;;;;;5026207;28;20193;-67
2023/01/21 12:25:57;;;;;;;50.77;23.30;;;;;;;;;;5005803;28;20688;-67
2023/01/21 12:29:00;;;;;;;52.43;21.97;;;;;;;;;;5027364;28;20220;-67
2023/01/21 12:31:32;;;;;;;46.97;20.87;;;;;;;;;;5031866;28;20200;-67
2023/01/21 12:34:09;;;;;;;50.80;21.47;;;;;;;;;;5030613;28;20225;-67
2023/01/21 12:36:40;;;;;;;47.53;21.60;;;;;;;;;;5025065;28;20272;-67
2023/01/21 12:39:20;;;;;;;45.20;21.07;;;;;;;;;;5032414;28;20185;-67
2023/01/21 12:42:06;;;;;;;48.53;21.00;;;;;;;;;;5037352;28;20269;-67
2023/01/21 12:44:47;;;;;;;47.97;21.80;;;;;;;;;;5042357;28;20197;-68
2023/01/21 12:47:26;;;;;;;44.60;21.00;;;;;;;;;;5040215;28;20221;-67
2023/01/21 12:50:09;;;;;;;48.83;21.20;;;;;;;;;;5038989;28;20189;-67
2023/01/21 12:53:03;;;;;;;45.37;21.30;;;;;;;;;;5043430;28;20357;-67
2023/01/21 12:55:38;;;;;;;46.50;21.27;;;;;;;;;;5038933;28;20533;-67
2023/01/21 12:58:19;;;;;;;43.57;20.47;;;;;;;;;;5043642;28;20427;-68
2023/01/21 13:00:47;;;;;;;42.37;21.23;;;;;;;;;;5043147;28;20224;-67
2023/01/21 13:03:25;;;;;;;48.13;20.60;;;;;;;;;;5031858;28;20201;-67
2023/01/21 13:06:08;;;;;;;44.70;20.87;;;;;;;;;;5035207;28;20243;-67
2023/01/21 13:08:45;;;;;;;45.17;20.97;;;;;;;;;;5040593;28;20219;-67
2023/01/21 13:11:17;;;;;;;40.43;20.83;;;;;;;;;;5042568;28;20192;-68
2023/01/21 13:13:54;;;;;;;46.40;21.13;;;;;;;;;;5038712;28;20601;-67
2023/01/21 13:16:22;;;;;;;46.73;20.37;;;;;;;;;;5023410;28;20200;-67
2023/01/21 13:18:51;;;;;;;40.07;20.10;;;;;;;;;;5035051;28;20197;-68
2023/01/21 13:21:37;;;;;;;42.27;20.57;;;;;;;;;;5020811;28;20194;-67
2023/01/21 13:24:16;;;;;;;44.53;21.63;;;;;;;;;;5032185;28;20228;-68
2023/01/21 13:27:19;;;;;;;43.83;20.57;;;;;;;;;;5024131;28;20269;-68
2023/01/21 13:30:13;;;;;;;44.93;21.67;;;;;;;;;;5023487;28;20285;-67
2023/01/21 13:32:54;;;;;;;41.17;20.13;;;;;;;;;;5024628;28;20226;-68
2023/01/21 13:35:37;;;;;;;46.57;21.57;;;;;;;;;;5029885;28;20244;-68
2023/01/21 13:38:20;;;;;;;43.93;21.30;;;;;;;;;;5026814;28;20224;-68
2023/01/21 13:41:23;;;;;;;45.13;21.30;;;;;;;;;;5033243;28;20213;-68
2023/01/21 13:44:26;;;;;;;41.67;21.53;;;;;;;;;;5038153;28;20200;-67
2023/01/21 13:46:53;;;;;;;41.20;20.83;;;;;;;;;;5031105;28;20213;-67
2023/01/21 13:49:38;;;;;;;47.03;21.80;;;;;;;;;;5025420;28;20229;-68
2023/01/21 13:52:34;;;;;;;40.33;19.63;;;;;;;;;;5031968;28;20214;-67
2023/01/21 13:55:23;;;;;;;47.30;21.50;;;;;;;;;;5029384;28;20186;-68
2023/01/21 13:58:09;;;;;;;41.30;20.73;;;;;;;;;;5034308;28;20209;-68
2023/01/21 14:00:48;;;;;;;44.33;21.07;;;;;;;;;;5034830;28;20217;-68
2023/01/21 14:03:45;;;;;;;39.60;20.70;;;;;;;;;;5026524;28;20224;-68
2023/01/21 14:06:27;;;;;;;44.57;20.07;;;;;;;;;;5027974;28;20198;-69
2023/01/21 14:09:01;;;;;;;45.47;21.83;;;;;;;;;;5033405;28;20752;-68
2023/01/21 14:12:00;;;;;;;44.93;21.80;;;;;;;;;;5030193;28;20194;-68
2023/01/21 14:14:47;;;;;;;45.57;21.17;;;;;;;;;;5025755;28;20205;-68
2023/01/21 14:17:55;;;;;;;47.70;23.07;;;;;;;;;;5028824;28;20559;-68
2023/01/21 14:20:51;;;;;;;46.97;23.10;;;;;;;;;;5026811;28;20657;-68
2023/01/21 14:23:40;;;;;;;49.47;23.40;;;;;;;;;;5031465;28;20194;-68
2023/01/21 14:26:32;;;;;;;46.80;23.07;;;;;;;;;;5030488;28;20255;-68
2023/01/21 14:29:29;;;;;;;44.33;22.60;;;;;;;;;;5023649;28;20210;-68
2023/01/21 14:32:18;;;;;;;47.10;23.17;;;;;;;;;;5025463;28;20261;-68
2023/01/21 14:35:01;;;;;;;44.47;22.40;;;;;;;;;;5027943;28;20197;-69
2023/01/21 14:37:54;;;;;;;46.03;22.43;;;;;;;;;;5021923;28;20277;-68
2023/01/21 14:40:29;;;;;;;43.70;22.37;;;;;;;;;;5022296;28;20203;-68
2023/01/21 14:42:54;;;;;;;45.13;22.33;;;;;;;;;;5032861;28;20193;-68
2023/01/21 14:45:24;;;;;;;42.70;20.97;;;;;;;;;;5036270;28;20570;-68
2023/01/21 14:47:54;;;;;;;40.00;20.47;;;;;;;;;;5035048;28;20239;-68
2023/01/21 14:50:41;;;;;;;45.77;21.57;;;;;;;;;;5030456;28;20218;-68